Pagrindinis puslapis
METAR-TAF:

METAR-TAF

Oro uostai :

Bad Vöslau, Austrija

platuma: 47-57-52N, ilguma: 016-15-34E, Aukštis: 233 m

Dabartinis oras

Ataskaita buvo paskelbta 1 valandą ir 9 minutes, ne 18:00 UTC
Vėjas 6 kt iš Šiaurės/Šiaurės Rytų
Temperatūra 6°C
Drėgmė 70%
Slėgis
Matomumas 10 km arba daugiau
Mažai debesys ne aukštis 4000 ft

METAR: LOAV 211800Z 03006KT 9999 FEW040 06/01

Laikas: 21:09 (19:09 UTC)

Prognozė

Ataskaita buvo paskelbta 7 valandos ir 54 minutes, ne 11:15 UTC
Prognozė galioja nuo 21 metu 12 UTC su 21 metu 21 UTC
Vėjas 10 kt iš Šiaurės
Matomumas 10 km arba daugiau
Išsisklaidę debesys ne aukštis 4000 ft

TAF: LOAV 211115Z 2112/2121 35010KT 9999 SCT040

Orai ataskaitas ir orų prognozės (METAR, TAF).

turimą stotys yra geltonos ir raudonos taškus žemėlapyje.

Perkelti pele per norėdami pamatyti stoties vardą.

Tada spustelėkite, norėdami matyti oro stebėjimo ir prognozės.

Norėdami pakeisti žemėlapį: spustelėkite ant žalios mygtukų su juodo kryžiaus žemyn,; žalią mygtuką su brūkšneliu, jei norite nutolinti; arba žalių rodyklių gretimoms žemėlapius.


METAR-TAF: